sensor_id;sensor_type;location;lat;lon;timestamp;pressure;altitude;pressure_sealevel;temperature;humidity
76106;BME280;64832;45.274;5.880;2023-09-12T00:02:06;98721.44;;;26.13;56.12
76106;BME280;64832;45.274;5.880;2023-09-12T00:04:32;98728.78;;;26.13;56.13
76106;BME280;64832;45.274;5.880;2023-09-12T00:06:57;98729.66;;;26.13;56.27
76106;BME280;64832;45.274;5.880;2023-09-12T00:09:23;98720.56;;;26.13;56.12
76106;BME280;64832;45.274;5.880;2023-09-12T00:11:48;98733.50;;;26.12;55.98
76106;BME280;64832;45.274;5.880;2023-09-12T00:14:17;98736.50;;;26.11;56.03
76106;BME280;64832;45.274;5.880;2023-09-12T00:16:42;98732.13;;;26.10;55.94
76106;BME280;64832;45.274;5.880;2023-09-12T00:19:08;98739.25;;;26.11;56.24
76106;BME280;64832;45.274;5.880;2023-09-12T00:21:33;98734.06;;;26.09;55.92
76106;BME280;64832;45.274;5.880;2023-09-12T00:23:58;98732.94;;;26.10;55.97
76106;BME280;64832;45.274;5.880;2023-09-12T00:26:24;98729.69;;;26.08;55.96
76106;BME280;64832;45.274;5.880;2023-09-12T00:28:49;98729.69;;;26.08;55.88
76106;BME280;64832;45.274;5.880;2023-09-12T00:31:15;98722.56;;;26.07;55.75
76106;BME280;64832;45.274;5.880;2023-09-12T00:33:40;98716.28;;;26.07;55.91
76106;BME280;64832;45.274;5.880;2023-09-12T00:36:05;98719.28;;;26.05;56.06
76106;BME280;64832;45.274;5.880;2023-09-12T00:38:31;98711.88;;;26.06;55.98
76106;BME280;64832;45.274;5.880;2023-09-12T00:40:56;98713.81;;;26.05;55.79
76106;BME280;64832;45.274;5.880;2023-09-12T00:43:22;98710.25;;;26.05;56.06
76106;BME280;64832;45.274;5.880;2023-09-12T00:45:47;98698.47;;;26.04;55.94
76106;BME280;64832;45.274;5.880;2023-09-12T00:48:13;98707.50;;;26.05;56.13
76106;BME280;64832;45.274;5.880;2023-09-12T00:50:40;98708.31;;;26.05;56.41
76106;BME280;64832;45.274;5.880;2023-09-12T00:53:07;98702.59;;;26.02;56.26
76106;BME280;64832;45.274;5.880;2023-09-12T00:55:33;98705.88;;;26.04;56.21
76106;BME280;64832;45.274;5.880;2023-09-12T00:58:01;98698.75;;;26.03;56.24
76106;BME280;64832;45.274;5.880;2023-09-12T01:00:26;98698.75;;;26.03;56.14
76106;BME280;64832;45.274;5.880;2023-09-12T01:02:52;98692.75;;;26.01;56.34
76106;BME280;64832;45.274;5.880;2023-09-12T01:05:19;98699.84;;;26.02;56.07
76106;BME280;64832;45.274;5.880;2023-09-12T01:07:46;98696.31;;;26.01;56.08
76106;BME280;64832;45.274;5.880;2023-09-12T01:10:12;98696.03;;;26.03;56.10
76106;BME280;64832;45.274;5.880;2023-09-12T01:12:37;98695.50;;;26.01;56.12
76106;BME280;64832;45.274;5.880;2023-09-12T01:15:03;98694.69;;;26.00;56.30
76106;BME280;64832;45.274;5.880;2023-09-12T01:17:33;98686.47;;;26.00;56.25
76106;BME280;64832;45.274;5.880;2023-09-12T01:20:00;98687.28;;;26.01;56.27
76106;BME280;64832;45.274;5.880;2023-09-12T01:27:59;98661.28;;;25.98;56.18
76106;BME280;64832;45.274;5.880;2023-09-12T01:30:27;98668.69;;;25.98;56.00
76106;BME280;64832;45.274;5.880;2023-09-12T01:32:53;98659.63;;;25.97;56.40
76106;BME280;64832;45.274;5.880;2023-09-12T01:35:19;98660.44;;;25.98;56.06
76106;BME280;64832;45.274;5.880;2023-09-12T01:37:44;98660.72;;;25.96;55.95
76106;BME280;64832;45.274;5.880;2023-09-12T01:40:10;98662.69;;;25.96;56.23
76106;BME280;64832;45.274;5.880;2023-09-12T01:42:39;98650.59;;;25.97;56.41
76106;BME280;64832;45.274;5.880;2023-09-12T01:45:08;98652.50;;;25.96;56.48
76106;BME280;64832;45.274;5.880;2023-09-12T01:47:35;98645.41;;;25.95;56.35
76106;BME280;64832;45.274;5.880;2023-09-12T01:50:01;98640.75;;;25.96;56.10
76106;BME280;64832;45.274;5.880;2023-09-12T01:52:28;98649.25;;;25.94;55.78
76106;BME280;64832;45.274;5.880;2023-09-12T01:54:55;98652.28;;;25.93;55.64
76106;BME280;64832;45.274;5.880;2023-09-12T01:57:21;98655.81;;;25.93;55.64
76106;BME280;64832;45.274;5.880;2023-09-12T01:59:47;98659.38;;;25.94;55.28
76106;BME280;64832;45.274;5.880;2023-09-12T02:02:15;98659.19;;;25.90;54.90
76106;BME280;64832;45.274;5.880;2023-09-12T02:04:41;98657.22;;;25.91;55.09
76106;BME280;64832;45.274;5.880;2023-09-12T02:07:06;98661.09;;;25.90;55.12
76106;BME280;64832;45.274;5.880;2023-09-12T02:09:32;98658.34;;;25.90;55.45
76106;BME280;64832;45.274;5.880;2023-09-12T02:11:57;98659.97;;;25.91;55.60
76106;BME280;64832;45.274;5.880;2023-09-12T02:14:22;98656.72;;;25.89;55.72
76106;BME280;64832;45.274;5.880;2023-09-12T02:16:48;98660.28;;;25.89;55.64
76106;BME280;64832;45.274;5.880;2023-09-12T02:19:13;98659.44;;;25.89;55.35
76106;BME280;64832;45.274;5.880;2023-09-12T02:21:38;98660.84;;;25.86;55.31
76106;BME280;64832;45.274;5.880;2023-09-12T02:24:04;98653.44;;;25.87;54.87
76106;BME280;64832;45.274;5.880;2023-09-12T02:26:29;98660.56;;;25.88;55.10
76106;BME280;64832;45.274;5.880;2023-09-12T02:28:55;98660.56;;;25.88;55.06
76106;BME280;64832;45.274;5.880;2023-09-12T02:31:20;98654.56;;;25.86;54.76
76106;BME280;64832;45.274;5.880;2023-09-12T02:33:46;98649.91;;;25.86;54.63
76106;BME280;64832;45.274;5.880;2023-09-12T02:36:12;98653.72;;;25.85;54.51
76106;BME280;64832;45.274;5.880;2023-09-12T02:38:38;98649.38;;;25.84;54.87
76106;BME280;64832;45.274;5.880;2023-09-12T02:41:03;98652.94;;;25.85;54.54
76106;BME280;64832;45.274;5.880;2023-09-12T02:43:29;98653.72;;;25.85;54.44
76106;BME280;64832;45.274;5.880;2023-09-12T02:45:54;98650.19;;;25.85;54.75
76106;BME280;64832;45.274;5.880;2023-09-12T02:48:20;98650.47;;;25.83;54.67
76106;BME280;64832;45.274;5.880;2023-09-12T02:50:45;98650.47;;;25.83;54.73
76106;BME280;64832;45.274;5.880;2023-09-12T02:53:10;98652.38;;;25.83;54.61
76106;BME280;64832;45.274;5.880;2023-09-12T02:55:39;98650.47;;;25.83;54.61
76106;BME280;64832;45.274;5.880;2023-09-12T02:58:06;98646.13;;;25.82;54.79
76106;BME280;64832;45.274;5.880;2023-09-12T03:00:31;98646.91;;;25.83;54.83
76106;BME280;64832;45.274;5.880;2023-09-12T03:02:56;98641.72;;;25.81;54.60
76106;BME280;64832;45.274;5.880;2023-09-12T03:05:22;98636.53;;;25.80;54.39
76106;BME280;64832;45.274;5.880;2023-09-12T03:07:47;98644.75;;;25.80;54.40
76106;BME280;64832;45.274;5.880;2023-09-12T03:10:13;98641.22;;;25.79;54.29
76106;BME280;64832;45.274;5.880;2023-09-12T03:12:38;98637.94;;;25.77;54.08
76106;BME280;64832;45.274;5.880;2023-09-12T03:15:04;98644.53;;;25.76;53.91
76106;BME280;64832;45.274;5.880;2023-09-12T03:17:29;98641.78;;;25.76;53.95
76106;BME280;64832;45.274;5.880;2023-09-12T03:19:55;98637.41;;;25.75;53.78
76106;BME280;64832;45.274;5.880;2023-09-12T03:22:20;98629.00;;;25.66;53.81
76106;BME280;64832;45.274;5.880;2023-09-12T03:24:45;98644.28;;;25.73;53.52
76106;BME280;64832;45.274;5.880;2023-09-12T03:27:11;98629.31;;;25.65;53.52
76106;BME280;64832;45.274;5.880;2023-09-12T03:29:36;98637.16;;;25.72;53.54
76106;BME280;64832;45.274;5.880;2023-09-12T03:32:01;98639.91;;;25.72;53.50
76106;BME280;64832;45.274;5.880;2023-09-12T03:34:27;98636.06;;;25.73;53.80
76106;BME280;64832;45.274;5.880;2023-09-12T03:36:52;98625.41;;;25.71;53.62
76106;BME280;64832;45.274;5.880;2023-09-12T03:39:18;98634.16;;;25.73;53.78
76106;BME280;64832;45.274;5.880;2023-09-12T03:41:43;98634.16;;;25.73;53.90
76106;BME280;64832;45.274;5.880;2023-09-12T03:44:08;98630.59;;;25.73;53.73
76106;BME280;64832;45.274;5.880;2023-09-12T03:46:34;98631.41;;;25.73;53.78
76106;BME280;64832;45.274;5.880;2023-09-12T03:48:59;98631.41;;;25.73;53.82
76106;BME280;64832;45.274;5.880;2023-09-12T03:51:24;98635.25;;;25.72;53.43
76106;BME280;64832;45.274;5.880;2023-09-12T03:53:50;98638.00;;;25.72;53.39
76106;BME280;64832;45.274;5.880;2023-09-12T03:56:16;98642.66;;;25.72;53.22
76106;BME280;64832;45.274;5.880;2023-09-12T03:58:45;98645.38;;;25.72;53.51
76106;BME280;64832;45.274;5.880;2023-09-12T04:01:10;98639.38;;;25.69;53.69
76106;BME280;64832;45.274;5.880;2023-09-12T04:03:35;98640.22;;;25.70;53.92
76106;BME280;64832;45.274;5.880;2023-09-12T04:06:01;98647.59;;;25.69;54.10
76106;BME280;64832;45.274;5.880;2023-09-12T04:08:26;98642.13;;;25.69;53.97
76106;BME280;64832;45.274;5.880;2023-09-12T04:10:52;98654.19;;;25.68;53.98
76106;BME280;64832;45.274;5.880;2023-09-12T04:13:17;98656.13;;;25.68;54.01
76106;BME280;64832;45.274;5.880;2023-09-12T04:15:42;98652.56;;;25.67;54.00
76106;BME280;64832;45.274;5.880;2023-09-12T04:18:08;98656.94;;;25.68;54.20
76106;BME280;64832;45.274;5.880;2023-09-12T04:20:33;98656.13;;;25.68;54.16
76106;BME280;64832;45.274;5.880;2023-09-12T04:23:02;98653.41;;;25.68;54.16
76106;BME280;64832;45.274;5.880;2023-09-12T04:25:28;98644.41;;;25.62;54.20
76106;BME280;64832;45.274;5.880;2023-09-12T04:27:54;98647.91;;;25.68;53.99
76106;BME280;64832;45.274;5.880;2023-09-12T04:30:19;98656.66;;;25.70;54.03
76106;BME280;64832;45.274;5.880;2023-09-12T04:32:44;98658.56;;;25.69;54.36
76106;BME280;64832;45.274;5.880;2023-09-12T04:35:10;98661.31;;;25.69;54.20
76106;BME280;64832;45.274;5.880;2023-09-12T04:37:35;98669.25;;;25.71;54.04
76106;BME280;64832;45.274;5.880;2023-09-12T04:40:01;98671.03;;;25.57;52.01
76106;BME280;64832;45.274;5.880;2023-09-12T04:42:26;98669.13;;;25.24;52.11
76106;BME280;64832;45.274;5.880;2023-09-12T04:44:51;98665.53;;;24.89;52.88
76106;BME280;64832;45.274;5.880;2023-09-12T04:47:17;98661.06;;;24.60;53.25
76106;BME280;64832;45.274;5.880;2023-09-12T04:49:43;98671.31;;;24.34;54.04
76106;BME280;64832;45.274;5.880;2023-09-12T04:52:09;98667.03;;;24.08;54.58
76106;BME280;64832;45.274;5.880;2023-09-12T04:54:34;98665.75;;;23.85;55.03
76106;BME280;64832;45.274;5.880;2023-09-12T04:57:00;98681.91;;;23.71;55.04
76106;BME280;64832;45.274;5.880;2023-09-12T04:59:25;98683.84;;;23.61;56.11
76106;BME280;64832;45.274;5.880;2023-09-12T05:01:50;98678.94;;;23.53;56.05
76106;BME280;64832;45.274;5.880;2023-09-12T05:04:16;98681.66;;;23.48;56.36
76106;BME280;64832;45.274;5.880;2023-09-12T05:06:41;98681.38;;;23.49;56.58
76106;BME280;64832;45.274;5.880;2023-09-12T05:09:07;98683.03;;;23.50;56.71
76106;BME280;64832;45.274;5.880;2023-09-12T05:11:34;98682.47;;;23.53;55.94
76106;BME280;64832;45.274;5.880;2023-09-12T05:14:00;98681.38;;;23.49;55.92
76106;BME280;64832;45.274;5.880;2023-09-12T05:16:25;98686.31;;;23.47;55.91
76106;BME280;64832;45.274;5.880;2023-09-12T05:18:50;98692.03;;;23.46;55.69
76106;BME280;64832;45.274;5.880;2023-09-12T05:21:16;98697.78;;;23.39;56.14
76106;BME280;64832;45.274;5.880;2023-09-12T05:23:42;98708.13;;;23.32;56.18
76106;BME280;64832;45.274;5.880;2023-09-12T05:26:07;98704.56;;;23.26;56.24
76106;BME280;64832;45.274;5.880;2023-09-12T05:28:34;98702.91;;;23.20;56.34
76106;BME280;64832;45.274;5.880;2023-09-12T05:30:59;98701.84;;;23.11;56.18
76106;BME280;64832;45.274;5.880;2023-09-12T05:33:24;98707.56;;;23.05;56.47
76106;BME280;64832;45.274;5.880;2023-09-12T05:35:50;98701.81;;;22.96;56.77
76106;BME280;64832;45.274;5.880;2023-09-12T05:38:15;98713.25;;;22.88;56.92
76106;BME280;64832;45.274;5.880;2023-09-12T05:40:40;98708.06;;;22.81;56.88
76106;BME280;64832;45.274;5.880;2023-09-12T05:43:06;98708.06;;;22.76;57.00
76106;BME280;64832;45.274;5.880;2023-09-12T05:45:31;98712.97;;;22.74;56.91
76106;BME280;64832;45.274;5.880;2023-09-12T05:47:58;98701.22;;;22.64;57.33
76106;BME280;64832;45.274;5.880;2023-09-12T05:50:24;98710.47;;;22.68;57.66
76106;BME280;64832;45.274;5.880;2023-09-12T05:52:49;98715.69;;;22.64;57.43
76106;BME280;64832;45.274;5.880;2023-09-12T05:55:14;98711.31;;;22.63;57.63
76106;BME280;64832;45.274;5.880;2023-09-12T05:57:40;98715.06;;;22.62;58.05
76106;BME280;64832;45.274;5.880;2023-09-12T06:00:06;98704.44;;;22.61;58.09
76106;BME280;64832;45.274;5.880;2023-09-12T06:02:35;98703.91;;;22.59;58.16
76106;BME280;64832;45.274;5.880;2023-09-12T06:05:01;98701.44;;;22.57;58.42
76106;BME280;64832;45.274;5.880;2023-09-12T06:07:26;98707.41;;;22.54;58.99
76106;BME280;64832;45.274;5.880;2023-09-12T06:09:51;98712.63;;;22.56;59.55
76106;BME280;64832;45.274;5.880;2023-09-12T06:12:17;98709.88;;;22.56;59.97
76106;BME280;64832;45.274;5.880;2023-09-12T06:14:43;98709.06;;;22.55;60.32
76106;BME280;64832;45.274;5.880;2023-09-12T06:17:08;98720.78;;;22.56;60.46
76106;BME280;64832;45.274;5.880;2023-09-12T06:19:34;98731.13;;;22.54;60.44
76106;BME280;64832;45.274;5.880;2023-09-12T06:21:59;98727.56;;;22.48;60.56
76106;BME280;64832;45.274;5.880;2023-09-12T06:24:25;98711.72;;;22.40;60.97
76106;BME280;64832;45.274;5.880;2023-09-12T06:26:51;98729.44;;;22.38;61.10
76106;BME280;64832;45.274;5.880;2023-09-12T06:29:17;98736.53;;;22.34;61.31
76106;BME280;64832;45.274;5.880;2023-09-12T06:31:43;98736.22;;;22.30;62.17
76106;BME280;64832;45.274;5.880;2023-09-12T06:34:08;98734.31;;;22.26;62.08
76106;BME280;64832;45.274;5.880;2023-09-12T06:36:34;98737.28;;;22.24;61.92
76106;BME280;64832;45.274;5.880;2023-09-12T06:39:00;98743.25;;;22.21;61.55
76106;BME280;64832;45.274;5.880;2023-09-12T06:41:26;98737.81;;;22.21;60.94
76106;BME280;64832;45.274;5.880;2023-09-12T06:43:52;98731.00;;;22.23;60.68
76106;BME280;64832;45.274;5.880;2023-09-12T06:46:18;98744.38;;;22.25;60.78
76106;BME280;64832;45.274;5.880;2023-09-12T06:48:46;98751.44;;;22.26;60.87
76106;BME280;64832;45.274;5.880;2023-09-12T06:51:14;98738.94;;;22.25;60.39
76106;BME280;64832;45.274;5.880;2023-09-12T06:53:40;98745.47;;;22.24;60.55
76106;BME280;64832;45.274;5.880;2023-09-12T06:56:05;98748.50;;;22.33;60.44
76106;BME280;64832;45.274;5.880;2023-09-12T06:58:31;98746.09;;;22.46;60.62
76106;BME280;64832;45.274;5.880;2023-09-12T07:01:06;98742.94;;;22.64;60.29
76106;BME280;64832;45.274;5.880;2023-09-12T07:03:33;98740.25;;;22.74;60.04
76106;BME280;64832;45.274;5.880;2023-09-12T07:05:58;98739.72;;;22.88;60.12
76106;BME280;64832;45.274;5.880;2023-09-12T07:08:24;98745.47;;;22.96;59.77
76106;BME280;64832;45.274;5.880;2023-09-12T07:10:50;98751.22;;;23.05;59.67
76106;BME280;64832;45.274;5.880;2023-09-12T07:13:15;98763.78;;;23.16;59.46
76106;BME280;64832;45.274;5.880;2023-09-12T07:15:41;98752.03;;;23.20;59.27
76106;BME280;64832;45.274;5.880;2023-09-12T07:18:06;98755.06;;;23.29;59.12
76106;BME280;64832;45.274;5.880;2023-09-12T07:20:33;98755.38;;;23.37;59.25
76106;BME280;64832;45.274;5.880;2023-09-12T07:22:59;98764.38;;;23.43;58.98
76106;BME280;64832;45.274;5.880;2023-09-12T07:25:24;98760.56;;;23.49;58.96
76106;BME280;64832;45.274;5.880;2023-09-12T07:27:50;98766.03;;;23.54;58.80
76106;BME280;64832;45.274;5.880;2023-09-12T07:30:16;98767.66;;;23.60;58.77
76106;BME280;64832;45.274;5.880;2023-09-12T07:32:41;98759.72;;;23.59;58.52
76106;BME280;64832;45.274;5.880;2023-09-12T07:35:07;98781.31;;;23.70;58.07
76106;BME280;64832;45.274;5.880;2023-09-12T07:37:32;98764.38;;;23.73;58.24
76106;BME280;64832;45.274;5.880;2023-09-12T07:39:58;98772.56;;;23.78;58.04
76106;BME280;64832;45.274;5.880;2023-09-12T07:42:24;98779.94;;;23.83;58.13
76106;BME280;64832;45.274;5.880;2023-09-12T07:44:49;98773.09;;;23.85;58.17
76106;BME280;64832;45.274;5.880;2023-09-12T07:47:15;98777.19;;;23.88;57.76
76106;BME280;64832;45.274;5.880;2023-09-12T07:49:41;98774.75;;;23.91;57.72
76106;BME280;64832;45.274;5.880;2023-09-12T07:52:06;98778.53;;;23.95;57.77
76106;BME280;64832;45.274;5.880;2023-09-12T07:54:32;98780.44;;;24.00;57.81
76106;BME280;64832;45.274;5.880;2023-09-12T07:56:57;98770.06;;;24.02;57.46
76106;BME280;64832;45.274;5.880;2023-09-12T07:59:24;98776.59;;;24.06;57.39
76106;BME280;64832;45.274;5.880;2023-09-12T08:01:49;98771.97;;;24.07;57.51
76106;BME280;64832;45.274;5.880;2023-09-12T08:04:16;98770.63;;;24.09;57.12
76106;BME280;64832;45.274;5.880;2023-09-12T08:06:41;98776.38;;;24.13;57.20
76106;BME280;64832;45.274;5.880;2023-09-12T08:09:07;98786.19;;;24.14;57.18
76106;BME280;64832;45.274;5.880;2023-09-12T08:11:33;98786.47;;;24.17;57.26
76106;BME280;64832;45.274;5.880;2023-09-12T08:13:58;98784.56;;;24.18;57.22
76106;BME280;64832;45.274;5.880;2023-09-12T08:16:24;98784.00;;;24.21;57.07
76106;BME280;64832;45.274;5.880;2023-09-12T08:18:49;98781.78;;;24.23;57.09
76106;BME280;64832;45.274;5.880;2023-09-12T08:21:14;98779.59;;;24.25;57.20
76106;BME280;64832;45.274;5.880;2023-09-12T08:23:40;98782.91;;;24.27;57.41
76106;BME280;64832;45.274;5.880;2023-09-12T08:26:05;98777.66;;;24.30;58.04
76106;BME280;64832;45.274;5.880;2023-09-12T08:28:31;98771.94;;;24.32;58.31
76106;BME280;64832;45.274;5.880;2023-09-12T08:30:56;98769.47;;;24.35;58.14
76106;BME280;64832;45.274;5.880;2023-09-12T08:33:21;98766.44;;;24.37;58.34
76106;BME280;64832;45.274;5.880;2023-09-12T08:35:48;98752.53;;;24.38;58.65
76106;BME280;64832;45.274;5.880;2023-09-12T08:38:14;98774.09;;;24.40;58.14
76106;BME280;64832;45.274;5.880;2023-09-12T08:40:39;98769.97;;;24.42;58.37
76106;BME280;64832;45.274;5.880;2023-09-12T08:43:05;98755.25;;;24.38;58.15
76106;BME280;64832;45.274;5.880;2023-09-12T08:45:31;98762.59;;;24.48;58.58
76106;BME280;64832;45.274;5.880;2023-09-12T08:47:59;98759.28;;;24.51;58.58
76106;BME280;64832;45.274;5.880;2023-09-12T08:50:26;98756.25;;;24.52;58.29
76106;BME280;64832;45.274;5.880;2023-09-12T08:52:56;98753.25;;;24.54;58.54
76106;BME280;64832;45.274;5.880;2023-09-12T08:55:21;98752.97;;;24.55;58.41
76106;BME280;64832;45.274;5.880;2023-09-12T08:57:48;98757.88;;;24.59;58.36
76106;BME280;64832;45.274;5.880;2023-09-12T09:00:15;98746.13;;;24.58;58.50
76106;BME280;64832;45.274;5.880;2023-09-12T09:02:42;98740.66;;;24.63;58.51
76106;BME280;64832;45.274;5.880;2023-09-12T09:05:09;98742.25;;;24.64;58.19
76106;BME280;64832;45.274;5.880;2023-09-12T09:07:41;98740.88;;;24.67;58.39
76106;BME280;64832;45.274;5.880;2023-09-12T09:10:13;98742.81;;;24.66;58.41
76106;BME280;64832;45.274;5.880;2023-09-12T09:12:40;98738.72;;;24.69;58.55
76106;BME280;64832;45.274;5.880;2023-09-12T09:17:52;98743.59;;;24.72;58.40
76106;BME280;64832;45.274;5.880;2023-09-12T09:20:34;98739.19;;;24.76;58.35
76106;BME280;64832;45.274;5.880;2023-09-12T09:25:26;98733.44;;;24.77;58.45
76106;BME280;64832;45.274;5.880;2023-09-12T09:27:51;98734.03;;;24.79;58.32
76106;BME280;64832;45.274;5.880;2023-09-12T09:30:17;98727.97;;;24.77;58.27
76106;BME280;64832;45.274;5.880;2023-09-12T09:32:44;98729.91;;;24.82;58.23
76106;BME280;64832;45.274;5.880;2023-09-12T09:35:11;98725.25;;;24.82;58.27
76106;BME280;64832;45.274;5.880;2023-09-12T09:37:36;98734.00;;;24.84;57.98
76106;BME280;64832;45.274;5.880;2023-09-12T09:40:06;98733.69;;;24.86;57.93
76106;BME280;64832;45.274;5.880;2023-09-12T09:42:31;98734.50;;;24.86;57.90
76106;BME280;64832;45.274;5.880;2023-09-12T09:44:57;98733.13;;;24.89;57.77
76106;BME280;64832;45.274;5.880;2023-09-12T09:47:22;98739.16;;;24.91;57.72
76106;BME280;64832;45.274;5.880;2023-09-12T09:49:51;98740.78;;;24.92;58.00
76106;BME280;64832;45.274;5.880;2023-09-12T09:52:25;98743.25;;;24.93;57.94
76106;BME280;64832;45.274;5.880;2023-09-12T09:54:51;98736.94;;;24.93;57.62
76106;BME280;64832;45.274;5.880;2023-09-12T09:57:16;98750.34;;;24.94;57.75
76106;BME280;64832;45.274;5.880;2023-09-12T09:59:41;98753.91;;;24.95;57.52
76106;BME280;64832;45.274;5.880;2023-09-12T10:02:16;98761.00;;;24.96;57.69
76106;BME280;64832;45.274;5.880;2023-09-12T10:04:44;98755.53;;;24.96;57.53
76106;BME280;64832;45.274;5.880;2023-09-12T10:07:10;98758.03;;;24.92;57.79
76106;BME280;64832;45.274;5.880;2023-09-12T10:09:36;98751.41;;;24.98;57.63
76106;BME280;64832;45.274;5.880;2023-09-12T10:12:02;98753.34;;;24.98;57.39
76106;BME280;64832;45.274;5.880;2023-09-12T10:14:28;98752.78;;;25.01;57.43
76106;BME280;64832;45.274;5.880;2023-09-12T10:17:00;98750.03;;;25.01;57.58
76106;BME280;64832;45.274;5.880;2023-09-12T10:19:26;98751.13;;;25.00;57.30
76106;BME280;64832;45.274;5.880;2023-09-12T10:22:42;98743.75;;;25.00;57.50
76106;BME280;64832;45.274;5.880;2023-09-12T10:24:48;98743.47;;;25.02;56.98
76106;BME280;64832;45.274;5.880;2023-09-12T10:27:14;98739.63;;;25.03;57.16
76106;BME280;64832;45.274;5.880;2023-09-12T10:29:40;98737.41;;;25.05;57.23
76106;BME280;64832;45.274;5.880;2023-09-12T10:32:06;98739.03;;;25.06;57.18
76106;BME280;64832;45.274;5.880;2023-09-12T10:34:32;98730.28;;;25.09;56.99
76106;BME280;64832;45.274;5.880;2023-09-12T10:36:58;98729.19;;;25.10;56.70
76106;BME280;64832;45.274;5.880;2023-09-12T10:39:31;98734.34;;;25.11;56.85
76106;BME280;64832;45.274;5.880;2023-09-12T10:41:58;98728.06;;;25.11;56.63
76106;BME280;64832;45.274;5.880;2023-09-12T10:44:24;98724.22;;;25.12;56.94
76106;BME280;64832;45.274;5.880;2023-09-12T10:46:50;98718.47;;;25.13;56.82
76106;BME280;64832;45.274;5.880;2023-09-12T10:49:18;98702.06;;;25.08;56.63
76106;BME280;64832;45.274;5.880;2023-09-12T10:51:45;98717.88;;;25.17;56.41
76106;BME280;64832;45.274;5.880;2023-09-12T10:54:22;98706.94;;;25.17;56.20
76106;BME280;64832;45.274;5.880;2023-09-12T10:57:02;98706.38;;;25.20;56.63
76106;BME280;64832;45.274;5.880;2023-09-12T10:59:28;98704.47;;;25.20;56.44
76106;BME280;64832;45.274;5.880;2023-09-12T11:02:49;98704.72;;;25.24;56.33
76106;BME280;64832;45.274;5.880;2023-09-12T11:07:56;98716.19;;;25.26;56.18
76106;BME280;64832;45.274;5.880;2023-09-12T11:10:23;98707.44;;;25.24;56.34
76106;BME280;64832;45.274;5.880;2023-09-12T11:12:53;98704.16;;;25.27;56.45
76106;BME280;64832;45.274;5.880;2023-09-12T11:15:22;98710.41;;;25.27;56.16
76106;BME280;64832;45.274;5.880;2023-09-12T11:18:04;98704.66;;;25.29;56.07
76106;BME280;64832;45.274;5.880;2023-09-12T11:21:11;98702.44;;;25.31;55.86
76106;BME280;64832;45.274;5.880;2023-09-12T11:23:36;98703.03;;;25.28;56.20
76106;BME280;64832;45.274;5.880;2023-09-12T11:26:08;98698.88;;;25.30;56.12
76106;BME280;64832;45.274;5.880;2023-09-12T11:28:35;98700.00;;;25.29;55.91
76106;BME280;64832;45.274;5.880;2023-09-12T11:31:01;98703.78;;;25.33;56.06
76106;BME280;64832;45.274;5.880;2023-09-12T11:33:26;98696.41;;;25.34;55.94
76106;BME280;64832;45.274;5.880;2023-09-12T11:35:53;98691.44;;;25.36;55.86
76106;BME280;64832;45.274;5.880;2023-09-12T11:38:29;98684.31;;;25.40;55.76
76106;BME280;64832;45.274;5.880;2023-09-12T11:40:57;98687.03;;;25.40;55.94
76106;BME280;64832;45.274;5.880;2023-09-12T11:43:25;98688.09;;;25.44;55.79
76106;BME280;64832;45.274;5.880;2023-09-12T11:45:51;98681.53;;;25.45;55.86
76106;BME280;64832;45.274;5.880;2023-09-12T11:48:18;98682.06;;;25.47;55.71
76106;BME280;64832;45.274;5.880;2023-09-12T11:50:57;98682.88;;;25.47;55.57
76106;BME280;64832;45.274;5.880;2023-09-12T11:53:25;98665.91;;;25.45;55.75
76106;BME280;64832;45.274;5.880;2023-09-12T11:55:54;98672.75;;;25.48;55.69
76106;BME280;64832;45.274;5.880;2023-09-12T11:58:20;98660.16;;;25.47;55.55
76106;BME280;64832;45.274;5.880;2023-09-12T12:00:54;98664.00;;;25.46;55.70
76106;BME280;64832;45.274;5.880;2023-09-12T12:03:21;98654.44;;;25.43;55.68
76106;BME280;64832;45.274;5.880;2023-09-12T12:05:47;98661.25;;;25.46;55.70
76106;BME280;64832;45.274;5.880;2023-09-12T12:08:14;98653.03;;;25.46;55.85
76106;BME280;64832;45.274;5.880;2023-09-12T12:10:40;98651.69;;;25.43;55.41
76106;BME280;64832;45.274;5.880;2023-09-12T12:13:16;98651.09;;;25.46;55.63
76106;BME280;64832;45.274;5.880;2023-09-12T12:15:42;98653.31;;;25.44;55.51
76106;BME280;64832;45.274;5.880;2023-09-12T12:18:07;98655.50;;;25.47;55.49
76106;BME280;64832;45.274;5.880;2023-09-12T12:20:34;98647.56;;;25.46;55.59
76106;BME280;64832;45.274;5.880;2023-09-12T12:22:59;98642.09;;;25.46;55.77
76106;BME280;64832;45.274;5.880;2023-09-12T12:25:25;98643.72;;;25.47;55.54
76106;BME280;64832;45.274;5.880;2023-09-12T12:27:50;98640.13;;;25.46;55.62
76106;BME280;64832;45.274;5.880;2023-09-12T12:30:17;98642.63;;;25.48;55.80
76106;BME280;64832;45.274;5.880;2023-09-12T12:32:44;98635.50;;;25.47;55.78
76106;BME280;64832;45.274;5.880;2023-09-12T12:35:21;98640.13;;;25.46;55.70
76106;BME280;64832;45.274;5.880;2023-09-12T12:37:51;98637.97;;;25.48;55.96
76106;BME280;64832;45.274;5.880;2023-09-12T12:40:17;98629.19;;;25.46;55.70
76106;BME280;64832;45.274;5.880;2023-09-12T12:42:44;98635.25;;;25.48;55.69
76106;BME280;64832;45.274;5.880;2023-09-12T12:45:16;98630.59;;;25.49;55.55
76106;BME280;64832;45.274;5.880;2023-09-12T12:47:42;98627.03;;;25.48;55.82
76106;BME280;64832;45.274;5.880;2023-09-12T12:50:10;98631.38;;;25.49;55.59
76106;BME280;64832;45.274;5.880;2023-09-12T12:52:37;98629.47;;;25.50;55.89
76106;BME280;64832;45.274;5.880;2023-09-12T12:55:07;98627.53;;;25.50;55.87
76106;BME280;64832;45.274;5.880;2023-09-12T12:57:38;98628.94;;;25.48;55.78
76106;BME280;64832;45.274;5.880;2023-09-12T13:00:14;98636.59;;;25.51;55.57
76106;BME280;64832;45.274;5.880;2023-09-12T13:02:42;98633.03;;;25.50;55.82
76106;BME280;64832;45.274;5.880;2023-09-12T13:05:28;98628.88;;;25.53;55.78
76106;BME280;64832;45.274;5.880;2023-09-12T13:07:54;98635.47;;;25.52;55.68
76106;BME280;64832;45.274;5.880;2023-09-12T13:10:20;98632.72;;;25.52;55.60
76106;BME280;64832;45.274;5.880;2023-09-12T13:12:47;98625.31;;;25.52;55.88